createdAt,value
2017-10-11T00:02:12.767Z,21.20
2017-10-11T00:04:41.658Z,21.16
2017-10-11T00:07:10.453Z,21.13
2017-10-11T00:09:39.211Z,21.11
2017-10-11T00:12:07.726Z,21.09
2017-10-11T00:14:36.627Z,21.08
2017-10-11T00:17:05.531Z,21.08
2017-10-11T00:19:34.319Z,21.09
2017-10-11T00:22:03.316Z,21.08
2017-10-11T00:24:32.590Z,21.04
2017-10-11T00:27:01.419Z,21.04
2017-10-11T00:29:30.027Z,21.01
2017-10-11T00:31:58.864Z,21.04
2017-10-11T00:34:27.543Z,21.05
2017-10-11T00:36:56.413Z,21.00
2017-10-11T00:39:25.069Z,21.01
2017-10-11T00:41:53.602Z,21.00
2017-10-11T00:44:22.575Z,20.93
2017-10-11T00:46:51.425Z,20.92
2017-10-11T00:49:20.428Z,20.93
2017-10-11T00:51:49.150Z,20.93
2017-10-11T00:54:17.794Z,20.91
2017-10-11T00:56:46.322Z,20.89
2017-10-11T00:59:14.963Z,20.86
2017-10-11T01:01:43.894Z,20.89
2017-10-11T01:04:12.791Z,20.87
2017-10-11T01:06:41.233Z,20.87
2017-10-11T01:09:09.898Z,20.87
2017-10-11T01:11:38.543Z,20.85
2017-10-11T01:14:07.488Z,20.82
2017-10-11T01:16:36.239Z,20.81
2017-10-11T01:19:04.890Z,20.79
2017-10-11T01:21:33.510Z,20.80
2017-10-11T01:24:02.625Z,20.81
2017-10-11T01:26:31.226Z,20.81
2017-10-11T01:29:00.019Z,20.81
2017-10-11T01:31:28.555Z,20.79
2017-10-11T01:33:57.389Z,20.75
2017-10-11T01:36:26.331Z,20.73
2017-10-11T01:38:55.174Z,20.72
2017-10-11T01:41:23.836Z,20.72
2017-10-11T01:43:52.491Z,20.74
2017-10-11T01:46:21.257Z,20.72
2017-10-11T01:48:49.926Z,20.69
2017-10-11T01:51:18.475Z,20.64
2017-10-11T01:53:47.576Z,20.67
2017-10-11T01:56:16.645Z,20.66
2017-10-11T01:58:46.743Z,20.67
2017-10-11T02:01:15.615Z,20.69
2017-10-11T02:03:44.327Z,20.68
2017-10-11T02:06:13.275Z,20.65
2017-10-11T02:08:42.204Z,20.65
2017-10-11T02:11:11.019Z,20.61
2017-10-11T02:13:39.818Z,20.58
2017-10-11T02:16:08.538Z,20.59
2017-10-11T02:18:36.997Z,20.59
2017-10-11T02:21:05.548Z,20.60
2017-10-11T02:23:34.268Z,20.58
2017-10-11T02:26:03.223Z,20.57
2017-10-11T02:28:32.024Z,20.57
2017-10-11T02:31:00.708Z,20.55
2017-10-11T02:33:29.339Z,20.56
2017-10-11T02:35:58.238Z,20.54
2017-10-11T02:38:27.022Z,20.56
2017-10-11T02:40:55.718Z,20.54
2017-10-11T02:43:24.351Z,20.51
2017-10-11T02:45:53.189Z,20.51
2017-10-11T02:48:22.054Z,20.48
2017-10-11T02:50:50.935Z,20.51
2017-10-11T02:53:19.811Z,20.48
2017-10-11T02:55:48.458Z,20.50
2017-10-11T02:58:17.209Z,20.47
2017-10-11T03:00:45.921Z,20.49
2017-10-11T03:03:14.763Z,20.47
2017-10-11T03:05:43.310Z,20.47
2017-10-11T03:08:12.334Z,20.46
2017-10-11T03:10:40.883Z,20.47
2017-10-11T03:13:09.750Z,20.47
2017-10-11T03:15:38.940Z,20.46
2017-10-11T03:18:07.498Z,20.44
2017-10-11T03:20:36.034Z,20.44
2017-10-11T03:23:05.678Z,20.40
2017-10-11T03:25:34.441Z,20.41
2017-10-11T03:28:03.472Z,20.44
2017-10-11T03:30:32.085Z,20.43
2017-10-11T03:33:01.059Z,20.41
2017-10-11T03:35:29.562Z,20.38
2017-10-11T03:37:58.400Z,20.37
2017-10-11T03:40:27.138Z,20.40
2017-10-11T03:42:56.211Z,20.37
2017-10-11T03:45:24.750Z,20.40
2017-10-11T03:47:53.524Z,20.36
2017-10-11T03:50:22.094Z,20.37
2017-10-11T03:52:50.965Z,20.36
2017-10-11T03:55:19.552Z,20.33
2017-10-11T03:57:48.555Z,20.29
2017-10-11T04:03:19.307Z,20.29
2017-10-11T04:05:48.171Z,20.31
2017-10-11T04:08:16.626Z,20.33
2017-10-11T04:10:45.239Z,20.29
2017-10-11T04:13:14.118Z,20.30
2017-10-11T04:15:42.812Z,20.30
2017-10-11T04:18:11.755Z,20.29
2017-10-11T04:20:40.330Z,20.27
2017-10-11T04:23:08.959Z,20.29
2017-10-11T04:25:37.727Z,20.28
2017-10-11T04:28:06.587Z,20.32
2017-10-11T04:30:35.914Z,20.30
2017-10-11T04:33:04.542Z,20.27
2017-10-11T04:35:33.266Z,20.28
2017-10-11T04:38:02.139Z,20.24
2017-10-11T04:40:31.055Z,20.22
2017-10-11T04:42:59.743Z,20.23
2017-10-11T04:45:28.608Z,20.23
2017-10-11T04:47:57.276Z,20.25
2017-10-11T04:50:26.163Z,20.22
2017-10-11T04:52:54.740Z,20.21
2017-10-11T04:55:23.516Z,20.19
2017-10-11T04:57:52.024Z,20.20
2017-10-11T05:00:22.767Z,20.20
2017-10-11T05:02:51.549Z,20.20
2017-10-11T05:05:20.590Z,20.22
2017-10-11T05:07:49.231Z,20.19
2017-10-11T05:10:17.726Z,20.20
2017-10-11T05:12:46.555Z,20.19
2017-10-11T05:15:15.359Z,20.20
2017-10-11T05:17:44.130Z,20.19
2017-10-11T05:20:12.739Z,20.17
2017-10-11T05:22:41.326Z,20.16
2017-10-11T05:25:10.634Z,20.11
2017-10-11T05:27:39.942Z,20.12
2017-10-11T05:30:08.508Z,20.12
2017-10-11T05:32:37.164Z,20.11
2017-10-11T05:35:06.042Z,20.12
2017-10-11T05:37:34.670Z,20.12
2017-10-11T05:40:03.374Z,20.11
2017-10-11T05:42:32.122Z,20.12
2017-10-11T05:45:00.779Z,20.12
2017-10-11T05:47:29.687Z,20.10
2017-10-11T05:49:58.493Z,20.12
2017-10-11T05:52:27.065Z,20.11
2017-10-11T05:54:55.654Z,20.13
2017-10-11T05:57:24.213Z,20.12
2017-10-11T05:59:53.067Z,20.12
2017-10-11T06:02:22.372Z,20.12
2017-10-11T06:04:51.210Z,20.12
2017-10-11T06:07:19.961Z,20.13
2017-10-11T06:09:48.618Z,20.17
2017-10-11T06:12:17.510Z,20.17
2017-10-11T06:14:46.239Z,20.17
2017-10-11T06:17:15.312Z,20.12
2017-10-11T06:19:44.398Z,20.13
2017-10-11T06:22:13.363Z,20.13
2017-10-11T06:24:41.926Z,20.12
2017-10-11T06:27:10.518Z,20.12
2017-10-11T06:29:39.521Z,20.12
2017-10-11T06:32:08.263Z,20.11
2017-10-11T06:34:37.212Z,20.12
2017-10-11T06:37:05.834Z,20.11
2017-10-11T06:39:34.691Z,20.10
2017-10-11T06:42:03.465Z,20.11
2017-10-11T06:44:32.447Z,20.10
2017-10-11T06:47:01.387Z,20.11
2017-10-11T06:49:32.193Z,20.10
2017-10-11T06:52:00.888Z,20.10
2017-10-11T06:54:30.000Z,20.12
2017-10-11T06:56:59.005Z,20.11
2017-10-11T06:59:28.148Z,20.11
2017-10-11T07:01:56.804Z,20.11
2017-10-11T07:04:26.240Z,20.11
2017-10-11T07:06:54.943Z,20.10
2017-10-11T07:09:23.619Z,20.10
2017-10-11T07:11:52.578Z,20.09
2017-10-11T07:14:21.423Z,20.08
2017-10-11T07:16:50.342Z,20.10
2017-10-11T07:19:19.059Z,20.08
2017-10-11T07:21:47.620Z,20.08
2017-10-11T07:24:17.126Z,20.08
2017-10-11T07:26:45.618Z,20.06
2017-10-11T07:29:14.335Z,20.09
2017-10-11T07:31:44.089Z,20.07
2017-10-11T07:34:12.623Z,20.06
2017-10-11T07:36:41.651Z,20.06
2017-10-11T07:39:10.471Z,20.06
2017-10-11T07:41:39.130Z,20.06
2017-10-11T07:44:07.979Z,20.10
2017-10-11T07:46:36.917Z,20.09
2017-10-11T07:49:05.800Z,20.06
2017-10-11T07:51:34.870Z,20.04
2017-10-11T07:54:04.046Z,20.02
2017-10-11T07:56:32.703Z,20.00
2017-10-11T07:59:02.654Z,20.00
2017-10-11T08:01:31.544Z,20.02
2017-10-11T08:04:00.590Z,20.01
2017-10-11T08:06:29.681Z,19.99
2017-10-11T08:08:58.743Z,20.00
2017-10-11T08:11:28.144Z,19.99
2017-10-11T08:13:56.782Z,19.99
2017-10-11T08:16:25.435Z,19.98
2017-10-11T08:18:54.087Z,19.98
2017-10-11T08:21:22.760Z,19.97
2017-10-11T08:23:51.283Z,19.95
2017-10-11T08:26:20.051Z,19.94
2017-10-11T08:28:48.828Z,19.96
2017-10-11T08:31:18.035Z,19.97
2017-10-11T08:33:47.075Z,19.94
2017-10-11T08:36:16.621Z,19.97
2017-10-11T08:38:45.807Z,19.99
2017-10-11T08:41:14.952Z,19.99
2017-10-11T08:43:43.884Z,19.99
2017-10-11T08:46:12.926Z,20.01
2017-10-11T08:48:42.015Z,20.03
2017-10-11T08:51:11.192Z,20.09
2017-10-11T08:53:46.603Z,20.21
2017-10-11T08:56:15.946Z,20.32
2017-10-11T08:58:44.648Z,20.43
2017-10-11T09:01:13.819Z,20.54
2017-10-11T09:03:42.442Z,20.44
2017-10-11T09:06:11.414Z,20.36
2017-10-11T09:08:40.434Z,20.32
2017-10-11T09:11:09.215Z,20.32
2017-10-11T09:13:37.907Z,20.32
2017-10-11T09:16:06.774Z,20.29
2017-10-11T09:18:35.674Z,20.25
2017-10-11T09:21:04.424Z,20.32
2017-10-11T09:23:33.289Z,20.30
2017-10-11T09:26:02.130Z,20.29
2017-10-11T09:28:30.903Z,20.29
2017-10-11T09:31:00.989Z,20.28
2017-10-11T09:33:36.975Z,20.27
2017-10-11T09:36:09.162Z,20.23
2017-10-11T09:38:42.005Z,20.24
2017-10-11T09:41:13.524Z,20.25
2017-10-11T09:43:44.509Z,20.27
2017-10-11T09:46:13.985Z,20.27
2017-10-11T09:48:43.742Z,20.23
2017-10-11T09:51:12.795Z,20.22
2017-10-11T09:53:41.890Z,20.25
2017-10-11T09:56:11.001Z,20.26
2017-10-11T09:58:40.120Z,20.28
2017-10-11T10:01:11.039Z,20.21
2017-10-11T10:03:40.325Z,20.23
2017-10-11T10:06:11.511Z,20.22
2017-10-11T10:08:40.594Z,20.25
2017-10-11T10:11:09.434Z,20.20
2017-10-11T10:13:38.116Z,20.21
2017-10-11T10:16:06.832Z,20.17
2017-10-11T10:18:35.858Z,20.15
2017-10-11T10:21:05.212Z,20.19
2017-10-11T10:23:34.385Z,20.18
2017-10-11T10:26:03.234Z,20.13
2017-10-11T10:28:32.652Z,20.18
2017-10-11T10:31:01.338Z,20.19
2017-10-11T10:33:30.296Z,20.19
2017-10-11T10:35:59.023Z,20.19
2017-10-11T10:38:28.633Z,20.15
2017-10-11T10:40:58.763Z,20.18
2017-10-11T10:43:27.927Z,20.14
2017-10-11T10:45:58.512Z,20.14
2017-10-11T10:48:27.754Z,20.14
2017-10-11T10:50:56.554Z,20.11
2017-10-11T10:53:25.443Z,20.10
2017-10-11T10:55:54.091Z,20.14
2017-10-11T10:58:22.585Z,20.10
2017-10-11T11:00:51.126Z,20.10
2017-10-11T11:03:19.854Z,20.11
2017-10-11T11:05:48.535Z,20.11
2017-10-11T11:08:17.440Z,20.09
2017-10-11T11:10:46.142Z,20.11
2017-10-11T11:13:14.923Z,20.14
2017-10-11T11:15:43.831Z,20.15
2017-10-11T11:18:13.295Z,20.14
2017-10-11T11:20:42.919Z,20.12
2017-10-11T11:23:12.459Z,20.13
2017-10-11T11:25:41.791Z,20.16
2017-10-11T11:28:11.270Z,20.15
2017-10-11T11:30:40.015Z,20.11
2017-10-11T11:33:08.659Z,20.13
2017-10-11T11:35:37.807Z,20.13
2017-10-11T11:38:06.539Z,20.12
2017-10-11T11:40:35.531Z,20.19
2017-10-11T11:43:04.359Z,20.20
2017-10-11T11:45:33.102Z,20.20
2017-10-11T11:48:01.930Z,20.17
2017-10-11T11:50:31.404Z,20.14
2017-10-11T11:53:00.335Z,20.18
2017-10-11T11:55:30.497Z,20.18
2017-10-11T11:57:59.119Z,20.15
2017-10-11T12:00:27.752Z,20.15
2017-10-11T12:02:56.491Z,20.13
2017-10-11T12:05:25.454Z,20.13
2017-10-11T12:07:54.266Z,20.12
2017-10-11T12:10:24.486Z,20.14
2017-10-11T12:12:54.272Z,20.11
2017-10-11T12:15:22.781Z,20.11
2017-10-11T12:17:51.734Z,20.10
2017-10-11T12:20:20.452Z,20.13
2017-10-11T12:22:49.493Z,20.11
2017-10-11T12:25:18.203Z,20.11
2017-10-11T12:27:47.047Z,20.08
2017-10-11T12:30:15.634Z,20.09
2017-10-11T12:32:44.474Z,20.09
2017-10-11T12:35:13.387Z,20.09
2017-10-11T12:37:42.179Z,20.09
2017-10-11T12:40:10.906Z,20.11
2017-10-11T12:42:44.362Z,20.09
2017-10-11T12:45:13.723Z,20.09
2017-10-11T12:47:42.577Z,20.10
2017-10-11T12:50:11.502Z,20.08
2017-10-11T12:52:40.385Z,20.11
2017-10-11T12:55:08.983Z,20.19
2017-10-11T12:57:37.774Z,20.17
2017-10-11T13:00:06.718Z,20.15
2017-10-11T13:02:36.381Z,20.10
2017-10-11T13:05:05.342Z,20.11
2017-10-11T13:07:33.979Z,20.11
2017-10-11T13:10:03.895Z,20.10
2017-10-11T13:12:33.054Z,20.11
2017-10-11T13:15:01.728Z,20.10
2017-10-11T13:17:31.273Z,20.08
2017-10-11T13:19:59.776Z,20.08
2017-10-11T13:22:28.502Z,20.07
2017-10-11T13:24:57.459Z,20.02
2017-10-11T13:27:26.290Z,20.04
2017-10-11T13:29:55.343Z,20.00
2017-10-11T13:32:23.899Z,19.99
2017-10-11T13:34:52.543Z,20.00
2017-10-11T13:37:21.199Z,20.01
2017-10-11T13:39:50.944Z,20.00
2017-10-11T13:42:20.627Z,20.00
2017-10-11T13:44:49.261Z,20.00
2017-10-11T13:47:19.883Z,20.06
2017-10-11T13:49:49.595Z,20.04
2017-10-11T13:52:18.338Z,20.02
2017-10-11T13:54:47.169Z,20.08
2017-10-11T13:57:15.879Z,20.06
2017-10-11T13:59:44.697Z,20.05
2017-10-11T14:02:13.288Z,20.14
2017-10-11T14:04:46.964Z,20.09
2017-10-11T14:07:15.980Z,20.06
2017-10-11T14:09:44.779Z,20.04
2017-10-11T14:12:13.766Z,20.04
2017-10-11T14:14:42.622Z,20.01
2017-10-11T14:17:11.418Z,19.98
2017-10-11T14:19:40.080Z,19.99
2017-10-11T14:22:08.835Z,20.00
2017-10-11T14:24:37.454Z,19.99
2017-10-11T14:27:07.701Z,19.99
2017-10-11T14:29:36.490Z,19.99
2017-10-11T14:32:06.278Z,19.98
2017-10-11T14:34:35.486Z,19.99
2017-10-11T14:37:04.718Z,19.97
2017-10-11T14:39:34.280Z,19.98
2017-10-11T14:42:03.422Z,19.96
2017-10-11T14:44:33.271Z,19.97
2017-10-11T14:47:02.182Z,19.96
2017-10-11T14:49:30.910Z,19.96
2017-10-11T14:51:59.687Z,19.97
2017-10-11T14:54:28.274Z,20.04
2017-10-11T14:56:56.967Z,20.07
2017-10-11T14:59:25.656Z,20.07
2017-10-11T15:01:55.070Z,20.15
2017-10-11T15:04:23.967Z,20.14
2017-10-11T15:06:52.958Z,20.15
2017-10-11T15:09:21.744Z,20.24
2017-10-11T15:11:50.543Z,20.19
2017-10-11T15:14:20.432Z,20.15
2017-10-11T15:16:49.006Z,20.14
2017-10-11T15:19:17.942Z,20.14
2017-10-11T15:21:47.075Z,20.15
2017-10-11T15:24:16.380Z,20.16
2017-10-11T15:26:45.015Z,20.18
2017-10-11T15:29:14.584Z,20.19
2017-10-11T15:31:44.185Z,20.20
2017-10-11T15:34:12.682Z,20.20
2017-10-11T15:36:42.373Z,20.21
2017-10-11T15:39:10.957Z,20.21
2017-10-11T15:41:40.542Z,20.23
2017-10-11T15:44:09.042Z,20.24
2017-10-11T15:46:37.779Z,20.23
2017-10-11T15:49:06.510Z,20.23
2017-10-11T15:51:35.618Z,20.25
2017-10-11T15:54:04.655Z,20.26
2017-10-11T15:56:33.810Z,20.37
2017-10-11T15:59:02.646Z,20.43
2017-10-11T16:01:32.068Z,20.49
2017-10-11T16:04:00.552Z,20.51
2017-10-11T16:06:29.292Z,20.45
2017-10-11T16:08:58.482Z,20.42
2017-10-11T16:11:27.546Z,20.40
2017-10-11T16:13:56.455Z,20.39
2017-10-11T16:16:25.256Z,20.39
2017-10-11T16:18:54.863Z,20.39
2017-10-11T16:21:23.667Z,20.40
2017-10-11T16:23:52.735Z,20.38
2017-10-11T16:26:23.041Z,20.38
2017-10-11T16:28:52.021Z,20.37
2017-10-11T16:31:20.500Z,20.38
2017-10-11T16:33:49.527Z,20.37
2017-10-11T16:36:18.268Z,20.38
2017-10-11T16:38:47.171Z,20.52
2017-10-11T16:41:16.238Z,20.57
2017-10-11T16:43:44.714Z,20.52
2017-10-11T16:46:13.711Z,20.52
2017-10-11T16:48:42.499Z,20.52
2017-10-11T16:51:12.479Z,20.49
2017-10-11T16:53:41.784Z,20.49
2017-10-11T16:56:11.137Z,20.50
2017-10-11T16:58:40.169Z,20.49
2017-10-11T17:01:09.124Z,20.49
2017-10-11T17:03:38.880Z,20.50
2017-10-11T17:06:07.807Z,20.44
2017-10-11T17:08:37.324Z,20.48
2017-10-11T17:11:07.170Z,20.49
2017-10-11T17:13:35.695Z,20.49
2017-10-11T17:16:05.458Z,20.53
2017-10-11T17:18:35.294Z,20.53
2017-10-11T17:21:04.317Z,20.52
2017-10-11T17:23:33.076Z,20.51
2017-10-11T17:26:02.322Z,20.52
2017-10-11T17:28:30.939Z,20.50
2017-10-11T17:31:00.992Z,20.48
2017-10-11T17:33:30.307Z,20.48
2017-10-11T17:36:01.021Z,20.47
2017-10-11T17:38:30.580Z,20.45
2017-10-11T17:41:00.039Z,20.47
2017-10-11T17:43:30.430Z,20.48
2017-10-11T17:46:01.181Z,20.51
2017-10-11T17:48:31.241Z,20.53
2017-10-11T17:51:01.960Z,20.54
2017-10-11T17:53:31.505Z,20.54
2017-10-11T17:56:01.830Z,20.55
2017-10-11T17:58:32.141Z,20.55
2017-10-11T18:01:03.153Z,20.56
2017-10-11T18:03:32.864Z,20.58
2017-10-11T18:06:01.788Z,20.58
2017-10-11T18:08:33.628Z,20.60
2017-10-11T18:11:05.193Z,20.59
2017-10-11T18:13:35.311Z,20.57
2017-10-11T18:16:04.957Z,20.54
2017-10-11T18:18:36.968Z,20.54
2017-10-11T18:21:07.551Z,20.53
2017-10-11T18:23:37.589Z,20.54
2017-10-11T18:26:08.316Z,20.52
2017-10-11T18:28:38.972Z,20.50
2017-10-11T18:31:09.887Z,20.49
2017-10-11T18:33:40.435Z,20.49
2017-10-11T18:36:11.061Z,20.59
2017-10-11T18:38:39.871Z,20.73
2017-10-11T18:41:10.999Z,20.80
2017-10-11T18:43:44.428Z,20.90
2017-10-11T18:46:15.841Z,20.98
2017-10-11T18:48:46.268Z,21.08
2017-10-11T18:51:29.422Z,21.09
2017-10-11T18:54:05.318Z,21.12
2017-10-11T18:56:49.267Z,21.16
2017-10-11T18:59:24.889Z,21.24
2017-10-11T19:01:59.545Z,21.37
2017-10-11T19:04:34.258Z,21.49
2017-10-11T19:07:08.528Z,21.68
2017-10-11T19:09:39.280Z,21.75
2017-10-11T19:12:08.829Z,21.87
2017-10-11T19:14:38.509Z,21.91
2017-10-11T19:17:08.962Z,22.01
2017-10-11T19:19:39.553Z,22.10
2017-10-11T19:22:09.350Z,22.13
2017-10-11T19:24:40.694Z,22.17
2017-10-11T19:27:12.681Z,22.21
2017-10-11T19:29:43.496Z,22.24
2017-10-11T19:32:14.169Z,22.31
2017-10-11T19:34:45.318Z,22.32
2017-10-11T19:37:14.247Z,22.39
2017-10-11T19:39:46.035Z,22.40
2017-10-11T19:42:18.390Z,22.46
2017-10-11T19:44:48.236Z,22.52
2017-10-11T19:47:18.911Z,22.57
2017-10-11T19:49:49.736Z,22.58
2017-10-11T19:52:18.819Z,22.60
2017-10-11T19:54:48.434Z,22.65
2017-10-11T19:57:19.139Z,22.69
2017-10-11T19:59:47.951Z,22.72
2017-10-11T20:02:17.913Z,22.76
2017-10-11T20:04:48.063Z,22.79
2017-10-11T20:07:17.047Z,22.77
2017-10-11T20:09:46.285Z,22.72
2017-10-11T20:12:16.928Z,22.78
2017-10-11T20:14:46.785Z,22.76
2017-10-11T20:17:16.321Z,22.68
2017-10-11T20:19:47.089Z,22.75
2017-10-11T20:22:16.264Z,22.78
2017-10-11T20:24:45.633Z,22.83
2017-10-11T20:27:14.785Z,22.85
2017-10-11T20:29:44.571Z,22.87
2017-10-11T20:32:13.259Z,22.96
2017-10-11T20:34:42.845Z,22.98
2017-10-11T20:37:11.808Z,23.04
2017-10-11T20:39:40.559Z,23.09
2017-10-11T20:42:09.620Z,23.15
2017-10-11T20:44:39.327Z,23.22
2017-10-11T20:47:08.163Z,23.29
2017-10-11T20:49:37.230Z,23.33
2017-10-11T20:52:06.200Z,23.31
2017-10-11T20:54:34.991Z,23.34
2017-10-11T20:57:03.934Z,23.34
2017-10-11T20:59:33.174Z,23.32
2017-10-11T21:02:01.694Z,23.33
2017-10-11T21:04:31.093Z,23.41
2017-10-11T21:07:00.055Z,23.31
2017-10-11T21:09:28.667Z,23.18
2017-10-11T21:11:58.642Z,23.06
2017-10-11T21:14:27.386Z,22.88
2017-10-11T21:16:56.135Z,22.79
2017-10-11T21:19:25.418Z,22.88
2017-10-11T21:21:54.068Z,22.67
2017-10-11T21:24:23.650Z,22.61
2017-10-11T21:26:52.378Z,22.70
2017-10-11T21:29:24.816Z,22.67
2017-10-11T21:31:53.791Z,22.63
2017-10-11T21:34:23.510Z,22.60
2017-10-11T21:36:52.006Z,22.66
2017-10-11T21:39:20.886Z,22.55
2017-10-11T21:41:49.633Z,22.49
2017-10-11T21:44:21.879Z,22.45
2017-10-11T21:46:50.847Z,22.43
2017-10-11T21:49:19.516Z,22.56
2017-10-11T21:51:49.270Z,22.65
2017-10-11T21:54:18.048Z,22.37
2017-10-11T21:56:46.855Z,22.13
2017-10-11T21:59:15.551Z,22.16
2017-10-11T22:01:44.823Z,22.28
2017-10-11T22:04:13.512Z,22.27
2017-10-11T22:06:42.252Z,22.25
2017-10-11T22:09:11.089Z,22.21
2017-10-11T22:11:39.867Z,22.14
2017-10-11T22:14:08.452Z,22.14
2017-10-11T22:16:37.811Z,22.11
2017-10-11T22:19:06.286Z,22.07
2017-10-11T22:21:35.518Z,22.06
2017-10-11T22:24:04.002Z,22.01
2017-10-11T22:26:33.267Z,22.01
2017-10-11T22:29:03.370Z,22.00
2017-10-11T22:31:32.316Z,21.92
2017-10-11T22:34:01.663Z,21.89
2017-10-11T22:36:30.126Z,21.90
2017-10-11T22:38:58.991Z,21.84
2017-10-11T22:41:29.019Z,21.82
2017-10-11T22:43:57.598Z,21.80
2017-10-11T22:46:26.468Z,21.78
2017-10-11T22:48:55.287Z,21.73
2017-10-11T22:51:24.070Z,21.72
2017-10-11T22:53:52.731Z,21.66
2017-10-11T22:56:22.115Z,21.71
2017-10-11T22:58:51.200Z,21.82
2017-10-11T23:01:19.915Z,21.91
2017-10-11T23:03:49.008Z,22.01
2017-10-11T23:06:17.503Z,22.09
2017-10-11T23:08:46.169Z,22.14
2017-10-11T23:11:14.771Z,22.05
2017-10-11T23:13:43.326Z,21.82
2017-10-11T23:16:11.901Z,21.71
2017-10-11T23:18:40.903Z,21.68
2017-10-11T23:21:09.445Z,21.61
2017-10-11T23:23:38.272Z,21.60
2017-10-11T23:26:06.790Z,21.56
2017-10-11T23:28:35.659Z,21.54
2017-10-11T23:31:04.178Z,21.53
2017-10-11T23:33:33.027Z,21.51
2017-10-11T23:36:01.526Z,21.54
2017-10-11T23:38:30.586Z,21.50
2017-10-11T23:40:59.297Z,21.56
2017-10-11T23:43:27.987Z,21.47
2017-10-11T23:45:56.691Z,21.47
2017-10-11T23:48:25.352Z,21.51
2017-10-11T23:50:53.873Z,21.42
2017-10-11T23:53:22.499Z,21.47
2017-10-11T23:55:51.016Z,21.49
2017-10-11T23:58:19.870Z,21.50
